Time;durP1;ratioP1;P1;durP2;ratioP2;P2;SDS_P1;SDS_P2;PMS_P1;PMS_P2;Temp;Humidity;BMP_temperature;BMP_pressure;BME280_temperature;BME280_humidity;BME280_pressure;Samples;Min_cycle;Max_cycle;Signal;HPM_P1;HPM_P2
2022/07/11 00:02:20;;;;;;;;;;;;;;;20.97;57.18;98451.09;5122984;28;19920;-60
2022/07/11 00:04:47;;;;;;;;;;;;;;;20.95;57.15;98448.69;5122506;28;20018;-60
2022/07/11 00:07:15;;;;;;;;;;;;;;;20.97;57.18;98440.25;5123711;28;19924;-60
2022/07/11 00:09:42;;;;;;;;;;;;;;;20.98;57.32;98445.34;5126090;28;19934;-60
2022/07/11 00:12:09;;;;;;;;;;;;;;;21.02;57.28;98442.78;5130084;27;19959;-60
2022/07/11 00:14:35;;;;;;;;;;;;;;;20.94;57.51;98446.31;5126081;28;19955;-61
2022/07/11 00:17:02;;;;;;;;;;;;;;;20.75;58.11;98443.06;5126009;28;19927;-60
2022/07/11 00:19:28;;;;;;;;;;;;;;;20.77;58.20;98446.25;5122427;28;19924;-60
2022/07/11 00:21:55;;;;;;;;;;;;;;;20.87;58.19;98437.81;5122357;28;19953;-62
2022/07/11 00:24:24;;;;;;;;;;;;;;;20.94;58.08;98435.44;5124949;28;19924;-60
2022/07/11 00:26:51;;;;;;;;;;;;;;;20.90;58.10;98442.63;5125761;28;19977;-61
2022/07/11 00:29:18;;;;;;;;;;;;;;;20.89;58.22;98441.00;5123846;28;19927;-60
2022/07/11 00:31:44;;;;;;;;;;;;;;;20.87;58.30;98435.91;5122093;28;19931;-61
2022/07/11 00:34:11;;;;;;;;;;;;;;;20.68;59.15;98429.97;5123055;28;19928;-60
2022/07/11 00:36:37;;;;;;;;;;;;;;;20.67;59.08;98433.00;5125588;28;19979;-59
2022/07/11 00:39:04;;;;;;;;;;;;;;;20.74;59.07;98433.31;5125595;28;19923;-59
2022/07/11 00:41:32;;;;;;;;;;;;;;;20.78;59.12;98426.16;5122080;28;19920;-60
2022/07/11 00:44:01;;;;;;;;;;;;;;;20.81;59.22;98429.03;5129824;27;19928;-61
2022/07/11 00:46:28;;;;;;;;;;;;;;;20.86;59.04;98428.06;5125388;28;19924;-60
2022/07/11 00:48:55;;;;;;;;;;;;;;;20.80;59.26;98424.72;5125461;28;19961;-61
2022/07/11 00:51:21;;;;;;;;;;;;;;;20.74;59.49;98425.16;5122864;28;19942;-61
2022/07/11 00:53:49;;;;;;;;;;;;;;;20.70;59.32;98425.03;5121788;28;19978;-62
2022/07/11 00:56:15;;;;;;;;;;;;;;;20.74;59.84;98425.16;5123465;28;19930;-60
2022/07/11 00:58:43;;;;;;;;;;;;;;;20.70;59.65;98429.66;5124878;28;20098;-60
2022/07/11 01:01:10;;;;;;;;;;;;;;;20.65;60.31;98427.06;5124022;28;19959;-60
2022/07/11 01:03:39;;;;;;;;;;;;;;;20.60;60.71;98424.50;5121483;28;19925;-60
2022/07/11 01:06:06;;;;;;;;;;;;;;;20.56;60.82;98418.91;5121683;28;19951;-60
2022/07/11 01:08:32;;;;;;;;;;;;;;;20.60;60.88;98416.38;5124858;28;19928;-60
2022/07/11 01:11:00;;;;;;;;;;;;;;;20.64;60.77;98415.41;5124799;28;20829;-60
2022/07/11 01:13:28;;;;;;;;;;;;;;;20.67;60.99;98416.72;5127617;27;20403;-60
2022/07/11 01:16:08;;;;;;;;;;;;;;;20.74;60.68;98414.31;5121223;28;19935;-59
2022/07/11 01:18:34;;;;;;;;;;;;;;;20.75;60.45;98410.50;5113033;28;19934;-59
2022/07/11 01:21:01;;;;;;;;;;;;;;;20.80;60.54;98402.19;5112900;28;19920;-60
2022/07/11 01:23:29;;;;;;;;;;;;;;;20.79;60.33;98412.28;5112968;28;19924;-59
2022/07/11 01:25:56;;;;;;;;;;;;;;;20.74;60.61;98408.88;5112748;28;19928;-59
2022/07/11 01:28:22;;;;;;;;;;;;;;;20.72;61.01;98411.13;5112554;28;19935;-60
2022/07/11 01:30:48;;;;;;;;;;;;;;;20.67;60.96;98411.28;5102994;28;19959;-60
2022/07/11 01:33:15;;;;;;;;;;;;;;;20.71;61.10;98406.81;5122654;28;20000;-60
2022/07/11 01:35:41;;;;;;;;;;;;;;;20.75;60.84;98407.78;5124462;28;19920;-60
2022/07/11 01:38:07;;;;;;;;;;;;;;;20.76;61.02;98409.38;5123613;28;19931;-60
2022/07/11 01:40:35;;;;;;;;;;;;;;;20.77;61.02;98406.34;5120816;28;19924;-60
2022/07/11 01:43:01;;;;;;;;;;;;;;;20.82;60.96;98402.69;5132926;27;19972;-60
2022/07/11 01:45:28;;;;;;;;;;;;;;;20.76;60.99;98407.47;5120717;28;20003;-60
2022/07/11 01:47:55;;;;;;;;;;;;;;;20.79;60.97;98406.03;5120451;28;19924;-59
2022/07/11 01:50:21;;;;;;;;;;;;;;;20.69;60.99;98404.41;5123130;28;19920;-60
2022/07/11 01:52:47;;;;;;;;;;;;;;;20.79;61.07;98403.31;5124183;28;19973;-60
2022/07/11 01:55:14;;;;;;;;;;;;;;;20.74;60.93;98406.97;5122520;28;19931;-60
2022/07/11 01:57:41;;;;;;;;;;;;;;;20.67;61.19;98398.53;5120633;28;19928;-59
2022/07/11 02:00:11;;;;;;;;;;;;;;;20.72;61.41;98394.84;5121213;28;19934;-60
2022/07/11 02:02:37;;;;;;;;;;;;;;;20.71;61.62;98409.53;5123789;28;19927;-61
2022/07/11 02:05:04;;;;;;;;;;;;;;;20.62;61.80;98385.09;5123808;28;19924;-59
2022/07/11 02:10:22;;;;;;;;;;;;;;;20.64;62.24;98390.97;5097839;28;19932;-60
2022/07/11 02:12:50;;;;;;;;;;;;;;;20.57;62.62;98387.97;5131667;27;19923;-59
2022/07/11 02:15:16;;;;;;;;;;;;;;;20.65;62.60;98392.59;5121995;28;19920;-60
2022/07/11 02:17:43;;;;;;;;;;;;;;;20.64;62.73;98393.69;5120079;28;20456;-61
2022/07/11 02:20:09;;;;;;;;;;;;;;;20.64;62.74;98385.56;5120743;28;19959;-60
2022/07/11 02:22:36;;;;;;;;;;;;;;;20.65;63.12;98378.22;5123509;28;19934;-60
2022/07/11 02:25:02;;;;;;;;;;;;;;;20.61;63.16;98378.03;5123273;28;19959;-60
2022/07/11 02:27:29;;;;;;;;;;;;;;;20.62;63.11;98381.56;5111462;28;19924;-60
2022/07/11 02:29:56;;;;;;;;;;;;;;;20.51;63.92;98389.22;5111304;28;19928;-60
2022/07/11 02:32:23;;;;;;;;;;;;;;;20.53;64.18;98386.19;5111232;28;19991;-61
2022/07/11 02:34:49;;;;;;;;;;;;;;;20.57;64.09;98385.25;5111289;28;19928;-60
2022/07/11 02:37:15;;;;;;;;;;;;;;;20.54;64.30;98385.88;5110950;28;19927;-59
2022/07/11 02:39:42;;;;;;;;;;;;;;;20.58;64.24;98377.91;5111145;28;19924;-60
2022/07/11 02:42:08;;;;;;;;;;;;;;;20.55;64.36;98379.31;5119757;27;19969;-60
2022/07/11 02:44:34;;;;;;;;;;;;;;;20.51;64.46;98381.09;5122967;28;19934;-61
2022/07/11 02:47:02;;;;;;;;;;;;;;;20.52;64.76;98381.88;5123019;28;19933;-60
2022/07/11 02:49:30;;;;;;;;;;;;;;;20.58;64.73;98384.09;5119547;28;19931;-60
2022/07/11 02:51:56;;;;;;;;;;;;;;;20.62;64.68;98384.28;5119593;28;19920;-59
2022/07/11 02:54:22;;;;;;;;;;;;;;;20.62;64.89;98384.28;5122133;28;19935;-60
2022/07/11 02:56:49;;;;;;;;;;;;;;;20.59;64.77;98383.00;5122723;28;19943;-60
2022/07/11 02:59:15;;;;;;;;;;;;;;;20.54;65.39;98385.88;5121140;28;19924;-60
2022/07/11 03:01:42;;;;;;;;;;;;;;;20.53;65.52;98380.75;5119170;28;19920;-60
2022/07/11 03:04:10;;;;;;;;;;;;;;;20.51;65.71;98386.50;5119976;28;19924;-60
2022/07/11 03:06:38;;;;;;;;;;;;;;;20.48;66.47;98389.06;5122612;28;20034;-60
2022/07/11 03:09:04;;;;;;;;;;;;;;;20.46;66.17;98386.63;5122445;28;19924;-60
2022/07/11 03:11:31;;;;;;;;;;;;;;;20.54;66.38;98393.22;5119222;28;19932;-59
2022/07/11 03:13:57;;;;;;;;;;;;;;;20.53;66.56;98391.59;5127364;27;19928;-60
2022/07/11 03:16:24;;;;;;;;;;;;;;;20.43;66.22;98393.50;5121941;28;19935;-60
2022/07/11 03:18:50;;;;;;;;;;;;;;;20.49;66.95;98390.66;5122712;28;19979;-60
2022/07/11 03:21:18;;;;;;;;;;;;;;;20.48;67.13;98392.56;5120741;28;19931;-62
2022/07/11 03:23:44;;;;;;;;;;;;;;;20.46;67.21;98392.06;5119039;28;19959;-59
2022/07/11 03:26:11;;;;;;;;;;;;;;;20.48;67.51;98389.06;5120147;28;20196;-60
2022/07/11 03:28:37;;;;;;;;;;;;;;;20.42;68.00;98391.88;5122543;28;19962;-60
2022/07/11 03:31:04;;;;;;;;;;;;;;;20.16;70.65;98382.06;5122384;28;19924;-60
2022/07/11 03:33:31;;;;;;;;;;;;;;;20.24;70.12;98392.94;5118933;28;19927;-59
2022/07/11 03:35:57;;;;;;;;;;;;;;;20.15;70.46;98386.66;5118220;28;19924;-59
2022/07/11 03:38:25;;;;;;;;;;;;;;;20.23;70.70;98388.63;5121666;28;19950;-60
2022/07/11 03:40:51;;;;;;;;;;;;;;;20.22;70.68;98391.63;5122274;28;19959;-60
2022/07/11 03:43:18;;;;;;;;;;;;;;;20.30;70.87;98394.41;5128280;27;19924;-60
2022/07/11 03:45:44;;;;;;;;;;;;;;;20.32;70.48;98386.78;5118690;28;19951;-60
2022/07/11 03:48:11;;;;;;;;;;;;;;;20.26;71.24;98392.66;5119666;28;20432;-61
2022/07/11 03:50:37;;;;;;;;;;;;;;;20.29;71.48;98395.53;5122273;28;19930;-61
2022/07/11 03:53:04;;;;;;;;;;;;;;;20.16;71.44;98388.28;5122190;28;19931;-59
2022/07/11 03:55:32;;;;;;;;;;;;;;;20.28;72.45;98395.84;5110067;28;19933;-61
2022/07/11 03:57:59;;;;;;;;;;;;;;;20.15;73.17;98389.38;5110005;28;19952;-60
2022/07/11 04:00:25;;;;;;;;;;;;;;;20.22;73.19;98392.44;5109951;28;20039;-60
2022/07/11 04:02:52;;;;;;;;;;;;;;;20.29;72.92;98390.13;5109959;28;19946;-61
2022/07/11 04:05:18;;;;;;;;;;;;;;;20.30;73.01;98394.41;5109850;28;19927;-60
2022/07/11 04:07:44;;;;;;;;;;;;;;;20.28;73.54;98401.25;5109700;28;19924;-60
2022/07/11 04:10:11;;;;;;;;;;;;;;;20.27;73.92;98403.19;5109673;28;19978;-60
2022/07/11 04:12:39;;;;;;;;;;;;;;;20.23;73.52;98407.63;5122620;27;19931;-60
2022/07/11 04:15:06;;;;;;;;;;;;;;;20.35;73.97;98412.47;5121648;28;20618;-60
2022/07/11 04:17:33;;;;;;;;;;;;;;;20.32;74.69;98413.91;5118432;28;19924;-60
2022/07/11 04:19:59;;;;;;;;;;;;;;;20.24;77.12;98411.13;5118302;28;19924;-60
2022/07/11 04:22:26;;;;;;;;;;;;;;;20.26;77.34;98419.78;5121410;28;19945;-61
2022/07/11 04:24:52;;;;;;;;;;;;;;;20.12;79.58;98417.13;5121633;28;19924;-60
2022/07/11 04:27:19;;;;;;;;;;;;;;;20.22;79.33;98414.16;5101725;28;19945;-59
2022/07/11 04:29:46;;;;;;;;;;;;;;;20.24;78.39;98414.63;5118036;28;19924;-59
2022/07/11 04:32:13;;;;;;;;;;;;;;;20.33;78.42;98418.19;5119623;28;19935;-58
2022/07/11 04:34:39;;;;;;;;;;;;;;;20.24;79.36;98422.75;5121865;28;19951;-59
2022/07/11 04:37:05;;;;;;;;;;;;;;;20.01;81.54;98423.94;5121484;28;19924;-60
2022/07/11 04:39:32;;;;;;;;;;;;;;;19.60;87.31;98428.78;5118362;28;19936;-60
2022/07/11 04:42:00;;;;;;;;;;;;;;;18.56;100.00;98437.09;5124696;28;19923;-60
2022/07/11 04:44:27;;;;;;;;;;;;;;;18.37;100.00;98423.63;5121995;28;19924;-59
2022/07/11 04:46:55;;;;;;;;;;;;;;;18.43;100.00;98435.97;5121337;28;19927;-59
2022/07/11 04:49:21;;;;;;;;;;;;;;;18.43;100.00;98432.44;5121756;28;20551;-60
2022/07/11 04:51:48;;;;;;;;;;;;;;;18.76;99.30;98432.03;5121420;28;19947;-59
2022/07/11 04:54:15;;;;;;;;;;;;;;;19.02;97.94;98437.72;5122861;28;19959;-59
2022/07/11 04:56:41;;;;;;;;;;;;;;;19.38;93.37;98435.78;5125152;28;19934;-61
2022/07/11 04:59:08;;;;;;;;;;;;;;;19.50;93.74;98434.44;5124375;28;19942;-60
2022/07/11 05:01:34;;;;;;;;;;;;;;;19.10;97.70;98441.59;5121338;28;19924;-60
2022/07/11 05:04:03;;;;;;;;;;;;;;;19.32;94.76;98447.84;5121360;28;19971;-60
2022/07/11 05:06:29;;;;;;;;;;;;;;;19.21;99.09;98443.78;5121212;28;19927;-61
2022/07/11 05:08:56;;;;;;;;;;;;;;;18.98;100.00;98452.97;5121106;28;19920;-60
2022/07/11 05:11:23;;;;;;;;;;;;;;;19.21;97.95;98451.09;5123834;28;19930;-60
2022/07/11 05:13:49;;;;;;;;;;;;;;;19.02;100.00;98456.66;5130808;27;19924;-60
2022/07/11 05:16:15;;;;;;;;;;;;;;;18.75;100.00;98451.31;5122661;28;19947;-60
2022/07/11 05:18:42;;;;;;;;;;;;;;;19.08;100.00;98454.63;5124551;28;19935;-60
2022/07/11 05:21:09;;;;;;;;;;;;;;;19.15;100.00;98457.75;5123808;28;19958;-60
2022/07/11 05:23:36;;;;;;;;;;;;;;;19.01;100.00;98455.06;5120904;28;19980;-61
2022/07/11 05:26:04;;;;;;;;;;;;;;;19.21;100.00;98461.94;5120908;28;19928;-60
2022/07/11 05:28:30;;;;;;;;;;;;;;;18.64;100.00;98466.94;5120943;28;19928;-62
2022/07/11 05:30:56;;;;;;;;;;;;;;;18.04;100.00;98474.25;5120778;28;20450;-60
2022/07/11 05:33:23;;;;;;;;;;;;;;;18.02;100.00;98476.47;5123500;28;19924;-62
2022/07/11 05:35:49;;;;;;;;;;;;;;;18.41;100.00;98475.22;5124263;28;19958;-61
2022/07/11 05:38:17;;;;;;;;;;;;;;;18.43;100.00;98471.13;5122528;28;19927;-60
2022/07/11 05:40:43;;;;;;;;;;;;;;;18.61;100.00;98462.13;5120654;28;19974;-60
2022/07/11 05:43:10;;;;;;;;;;;;;;;18.18;100.00;98480.50;5133205;27;19924;-60
2022/07/11 05:45:37;;;;;;;;;;;;;;;17.80;100.00;98481.72;5120610;28;19932;-60
2022/07/11 05:48:03;;;;;;;;;;;;;;;17.46;100.00;98487.34;5120391;28;19965;-60
2022/07/11 05:50:30;;;;;;;;;;;;;;;17.74;100.00;98489.09;5111874;28;19948;-61
2022/07/11 05:52:58;;;;;;;;;;;;;;;17.76;100.00;98491.53;5111951;28;19999;-60
2022/07/11 05:55:26;;;;;;;;;;;;;;;17.46;100.00;98487.34;5111984;28;19928;-61
2022/07/11 05:57:53;;;;;;;;;;;;;;;18.13;100.00;98483.31;5112005;28;19924;-61
2022/07/11 06:00:19;;;;;;;;;;;;;;;17.95;100.00;98492.25;5111492;28;19920;-60
2022/07/11 06:02:47;;;;;;;;;;;;;;;18.38;100.00;98484.75;5111726;28;19924;-62
2022/07/11 06:05:13;;;;;;;;;;;;;;;18.37;100.00;98485.03;5111781;28;19991;-60
2022/07/11 06:10:23;;;;;;;;;;;;;;;18.27;100.00;98480.63;5111491;28;19927;-59
2022/07/11 06:12:51;;;;;;;;;;;;;;;18.68;100.00;98477.97;5111442;28;20538;-60
2022/07/11 06:15:17;;;;;;;;;;;;;;;19.14;100.00;98470.47;5120046;28;19927;-60
2022/07/11 06:17:45;;;;;;;;;;;;;;;18.67;100.00;98465.53;5119952;28;19924;-60
2022/07/11 06:20:11;;;;;;;;;;;;;;;19.03;100.00;98466.41;5121008;28;19931;-60
2022/07/11 06:22:37;;;;;;;;;;;;;;;19.32;100.00;98466.81;5123715;28;19934;-60
2022/07/11 06:25:04;;;;;;;;;;;;;;;19.50;100.00;98467.75;5123556;28;19951;-60
2022/07/11 06:27:30;;;;;;;;;;;;;;;19.74;100.00;98462.06;5120002;28;19951;-59
2022/07/11 06:29:58;;;;;;;;;;;;;;;19.44;100.00;98463.56;5119498;28;20334;-62
2022/07/11 06:32:24;;;;;;;;;;;;;;;19.18;100.00;98470.66;5122655;28;19991;-60
2022/07/11 06:34:51;;;;;;;;;;;;;;;19.55;100.00;98462.25;5123222;28;19919;-61
2022/07/11 06:37:17;;;;;;;;;;;;;;;19.89;100.00;98458.97;5121221;28;19967;-61
2022/07/11 06:39:43;;;;;;;;;;;;;;;20.05;100.00;98462.88;5119561;28;19962;-60
2022/07/11 06:42:10;;;;;;;;;;;;;;;19.87;100.00;98461.97;5128561;27;19920;-60
2022/07/11 06:44:36;;;;;;;;;;;;;;;20.05;100.00;98462.88;5123007;28;20380;-60
2022/07/11 06:47:05;;;;;;;;;;;;;;;20.22;100.00;98471.09;5122899;28;19955;-60
2022/07/11 06:49:31;;;;;;;;;;;;;;;20.41;99.11;98466.28;5119284;28;19924;-60
2022/07/11 06:51:58;;;;;;;;;;;;;;;20.29;100.00;98466.06;5119430;28;19928;-61
2022/07/11 06:54:24;;;;;;;;;;;;;;;20.05;100.00;98473.72;5122041;28;19924;-59
2022/07/11 06:56:50;;;;;;;;;;;;;;;20.25;99.81;98467.75;5122809;28;20007;-60
2022/07/11 06:59:17;;;;;;;;;;;;;;;20.28;100.00;98471.78;5121136;28;19987;-61
2022/07/11 07:01:43;;;;;;;;;;;;;;;20.32;99.48;98460.00;5119126;28;19960;-60
2022/07/11 07:04:11;;;;;;;;;;;;;;;20.51;95.62;98465.19;5119800;28;19951;-60
2022/07/11 07:06:37;;;;;;;;;;;;;;;20.41;97.08;98457.34;5122454;28;19924;-60
2022/07/11 07:09:04;;;;;;;;;;;;;;;20.32;97.72;98461.91;5122522;28;19923;-60
2022/07/11 07:11:30;;;;;;;;;;;;;;;20.45;97.15;98458.31;5109916;28;19966;-61
2022/07/11 07:13:56;;;;;;;;;;;;;;;20.63;96.08;98462.69;5110702;28;19946;-60
2022/07/11 07:16:23;;;;;;;;;;;;;;;20.71;95.96;98466.53;5121831;28;19934;-60
2022/07/11 07:18:50;;;;;;;;;;;;;;;20.80;95.53;98456.47;5122678;28;19919;-59
2022/07/11 07:21:18;;;;;;;;;;;;;;;20.81;97.67;98468.94;5120775;28;19920;-60
2022/07/11 07:23:44;;;;;;;;;;;;;;;20.63;98.24;98472.72;5118896;28;19928;-61
2022/07/11 07:26:10;;;;;;;;;;;;;;;20.36;100.00;98474.53;5119649;28;19970;-59
2022/07/11 07:28:38;;;;;;;;;;;;;;;20.63;98.05;98465.41;5122510;28;19987;-60
2022/07/11 07:31:04;;;;;;;;;;;;;;;20.30;100.00;98470.34;5122172;28;19924;-59
2022/07/11 07:33:30;;;;;;;;;;;;;;;20.02;100.00;98474.34;5118582;28;19920;-60
2022/07/11 07:35:57;;;;;;;;;;;;;;;19.59;100.00;98475.97;5118661;28;19947;-59
2022/07/11 07:38:24;;;;;;;;;;;;;;;19.43;100.00;98477.44;5121502;28;19928;-60
2022/07/11 07:40:51;;;;;;;;;;;;;;;18.98;100.00;98482.72;5122304;28;19927;-59
2022/07/11 07:43:17;;;;;;;;;;;;;;;19.06;100.00;98481.22;5128691;27;19931;-59
2022/07/11 07:45:44;;;;;;;;;;;;;;;19.56;100.00;98476.59;5118514;28;19955;-61
2022/07/11 07:48:10;;;;;;;;;;;;;;;19.78;100.00;98473.88;5119380;28;19920;-59
2022/07/11 07:50:36;;;;;;;;;;;;;;;19.87;100.00;98472.00;5121810;28;19923;-59
2022/07/11 07:53:03;;;;;;;;;;;;;;;19.89;100.00;98477.94;5122063;28;19935;-60
2022/07/11 07:55:30;;;;;;;;;;;;;;;19.80;100.00;98485.22;5118665;28;19966;-59
2022/07/11 07:57:57;;;;;;;;;;;;;;;19.58;100.00;98494.16;5118696;28;19959;-60
2022/07/11 08:03:08;;;;;;;;;;;;;;;19.49;100.00;98477.03;5121578;28;19963;-60
2022/07/11 08:05:34;;;;;;;;;;;;;;;19.40;100.00;98476.94;5118396;28;19931;-60
2022/07/11 08:08:01;;;;;;;;;;;;;;;19.15;100.00;98469.38;5118279;28;20064;-60
2022/07/11 08:10:27;;;;;;;;;;;;;;;19.32;100.00;98466.00;5121627;28;19930;-60
2022/07/11 08:12:55;;;;;;;;;;;;;;;19.60;100.00;98466.72;5114924;28;19963;-60
2022/07/11 08:15:21;;;;;;;;;;;;;;;19.85;100.00;98469.63;5118520;28;20645;-60
2022/07/11 08:17:47;;;;;;;;;;;;;;;19.48;100.00;98477.31;5118558;28;19924;-61
2022/07/11 08:20:14;;;;;;;;;;;;;;;19.10;100.00;98474.88;5119878;28;19924;-60
2022/07/11 08:22:41;;;;;;;;;;;;;;;18.95;100.00;98482.53;5123836;28;19924;-60
2022/07/11 08:25:07;;;;;;;;;;;;;;;18.55;100.00;98481.47;5125459;28;19927;-60
2022/07/11 08:27:35;;;;;;;;;;;;;;;18.68;100.00;98491.47;5122409;28;19960;-60
2022/07/11 08:30:03;;;;;;;;;;;;;;;19.39;100.00;98479.94;5122263;28;19979;-60
2022/07/11 08:32:29;;;;;;;;;;;;;;;19.96;100.00;98481.00;5125720;28;19931;-60
2022/07/11 08:34:55;;;;;;;;;;;;;;;20.14;100.00;98463.72;5125455;28;19931;-60
2022/07/11 08:37:22;;;;;;;;;;;;;;;20.28;100.00;98467.16;5123030;28;19952;-61
2022/07/11 08:39:48;;;;;;;;;;;;;;;20.16;100.00;98469.63;5121994;28;19952;-60
2022/07/11 08:42:16;;;;;;;;;;;;;;;20.23;100.00;98464.56;5131684;27;19924;-59
2022/07/11 08:44:42;;;;;;;;;;;;;;;20.24;100.00;98466.16;5125312;28;19987;-61
2022/07/11 08:47:10;;;;;;;;;;;;;;;20.29;100.00;98466.06;5124713;28;19969;-61
2022/07/11 08:49:37;;;;;;;;;;;;;;;20.23;100.00;98461.88;5121735;28;19931;-60
2022/07/11 08:52:03;;;;;;;;;;;;;;;19.90;100.00;98460.53;5121600;28;19977;-60
2022/07/11 08:54:30;;;;;;;;;;;;;;;20.11;100.00;98460.84;5113132;28;20011;-60
2022/07/11 08:56:57;;;;;;;;;;;;;;;20.18;100.00;98467.41;5113284;28;19943;-60
2022/07/11 08:59:24;;;;;;;;;;;;;;;20.16;100.00;98461.50;5113139;28;19935;-60
2022/07/11 09:01:52;;;;;;;;;;;;;;;20.35;100.00;98467.53;5112754;28;19950;-60
2022/07/11 09:04:20;;;;;;;;;;;;;;;20.41;100.00;98460.03;5113075;28;19959;-60
2022/07/11 09:06:46;;;;;;;;;;;;;;;20.05;100.00;98459.38;5112884;28;19920;-61
2022/07/11 09:09:12;;;;;;;;;;;;;;;19.74;100.00;98456.63;5112963;28;19927;-59
2022/07/11 09:11:52;;;;;;;;;;;;;;;19.77;100.00;98462.25;5113843;27;19963;-61
2022/07/11 09:14:23;;;;;;;;;;;;;;;19.99;100.00;98457.91;5126577;27;19946;-60
2022/07/11 09:16:53;;;;;;;;;;;;;;;20.09;100.00;98458.44;5124944;28;19958;-61
2022/07/11 09:19:24;;;;;;;;;;;;;;;19.98;100.00;98459.81;5122580;28;19934;-59
2022/07/11 09:27:40;;;;;;;;;;;;;;;20.14;100.00;98460.22;5121194;28;19920;-60
2022/07/11 09:30:15;;;;;;;;;;;;;;;20.38;100.00;98458.75;5121172;28;19982;-60
2022/07/11 09:32:43;;;;;;;;;;;;;;;20.61;100.00;98458.69;5124620;28;19955;-62
2022/07/11 09:35:13;;;;;;;;;;;;;;;20.67;100.00;98457.44;5122640;28;19931;-61
2022/07/11 09:37:42;;;;;;;;;;;;;;;20.68;100.00;98453.56;5120883;28;19928;-59
2022/07/11 09:40:12;;;;;;;;;;;;;;;20.59;100.00;98453.56;5121132;28;19924;-60
2022/07/11 09:42:46;;;;;;;;;;;;;;;20.75;100.00;98451.22;5132527;27;19930;-60
2022/07/11 09:45:13;;;;;;;;;;;;;;;20.75;100.00;98449.31;5123140;28;19924;-61
2022/07/11 09:47:43;;;;;;;;;;;;;;;20.79;100.00;98450.28;5120679;28;20058;-60
2022/07/11 09:50:09;;;;;;;;;;;;;;;20.76;100.00;98455.53;5121477;28;19931;-60
2022/07/11 09:52:37;;;;;;;;;;;;;;;20.86;100.00;98444.34;5124247;28;19919;-60
2022/07/11 09:55:05;;;;;;;;;;;;;;;20.63;100.00;98446.41;5124112;28;19931;-59
2022/07/11 09:57:32;;;;;;;;;;;;;;;20.46;100.00;98452.56;5112103;28;20335;-60
2022/07/11 09:59:59;;;;;;;;;;;;;;;20.07;100.00;98454.44;5112013;28;19924;-60
2022/07/11 10:02:26;;;;;;;;;;;;;;;20.03;100.00;98456.97;5112131;28;19970;-61
2022/07/11 10:04:53;;;;;;;;;;;;;;;19.94;100.00;98456.13;5111775;28;19924;-61
2022/07/11 10:07:19;;;;;;;;;;;;;;;19.89;100.00;98464.38;5111707;28;19995;-62
2022/07/11 10:09:47;;;;;;;;;;;;;;;19.91;100.00;98471.09;5111614;28;19935;-61
2022/07/11 10:12:13;;;;;;;;;;;;;;;19.54;100.00;98476.88;5121301;27;19923;-60
2022/07/11 10:14:41;;;;;;;;;;;;;;;19.27;100.00;98474.25;5123596;28;19990;-60
2022/07/11 10:17:10;;;;;;;;;;;;;;;19.14;100.00;98477.78;5123245;28;20160;-60
2022/07/11 10:19:42;;;;;;;;;;;;;;;19.35;100.00;98473.50;5120006;28;19924;-60
2022/07/11 10:22:15;;;;;;;;;;;;;;;19.39;100.00;98479.94;5120526;28;19924;-60
2022/07/11 10:24:46;;;;;;;;;;;;;;;19.36;100.00;98494.88;5123551;28;19971;-61
2022/07/11 10:27:21;;;;;;;;;;;;;;;18.98;100.00;98493.56;5122486;28;19950;-61
2022/07/11 10:29:50;;;;;;;;;;;;;;;18.86;100.00;98499.50;5119704;28;19987;-61
2022/07/11 10:32:17;;;;;;;;;;;;;;;18.94;100.00;98489.06;5121549;28;19924;-60
2022/07/11 10:34:44;;;;;;;;;;;;;;;19.18;100.00;98493.13;5123209;28;19946;-60
2022/07/11 10:37:11;;;;;;;;;;;;;;;19.23;100.00;98484.09;5122389;28;19920;-60
2022/07/11 10:39:38;;;;;;;;;;;;;;;19.44;100.00;98495.28;5119939;28;19924;-60
2022/07/11 10:42:05;;;;;;;;;;;;;;;19.70;100.00;98483.56;5128036;27;19924;-59
2022/07/11 10:44:47;;;;;;;;;;;;;;;20.01;100.00;98494.44;5119613;28;19953;-61
2022/07/11 10:47:28;;;;;;;;;;;;;;;20.05;100.00;98481.06;5120795;28;19931;-60
2022/07/11 10:49:57;;;;;;;;;;;;;;;20.35;100.00;98489.22;5122925;28;19975;-60
2022/07/11 10:52:23;;;;;;;;;;;;;;;20.58;100.00;98486.44;5120506;28;19951;-60
2022/07/11 10:54:55;;;;;;;;;;;;;;;20.85;100.00;98486.22;5119338;28;19971;-60
2022/07/11 10:57:23;;;;;;;;;;;;;;;20.81;100.00;98485.25;5121677;28;19924;-59
2022/07/11 10:59:57;;;;;;;;;;;;;;;21.08;100.00;98486.88;5122841;28;19927;-60
2022/07/11 11:02:24;;;;;;;;;;;;;;;20.94;100.00;98484.31;5120226;28;19955;-60
2022/07/11 11:04:52;;;;;;;;;;;;;;;20.64;100.00;98485.19;5119298;28;19935;-61
2022/07/11 11:07:33;;;;;;;;;;;;;;;20.40;97.61;98482.84;5120884;28;19924;-60
2022/07/11 11:10:01;;;;;;;;;;;;;;;20.04;95.98;98488.41;5122408;28;20141;-60
2022/07/11 11:12:45;;;;;;;;;;;;;;;20.19;97.24;98484.47;5126877;27;20159;-60
2022/07/11 11:15:31;;;;;;;;;;;;;;;20.29;95.98;98468.78;5103714;28;19955;-60
2022/07/11 11:17:57;;;;;;;;;;;;;;;20.33;96.04;98469.72;5119176;28;19931;-60
2022/07/11 11:20:31;;;;;;;;;;;;;;;20.37;95.78;98481.56;5121647;28;19924;-60
2022/07/11 11:23:10;;;;;;;;;;;;;;;20.78;94.83;98475.81;5122465;28;19931;-60
2022/07/11 11:25:36;;;;;;;;;;;;;;;20.73;90.29;98467.03;5110511;28;19988;-59
2022/07/11 11:28:04;;;;;;;;;;;;;;;20.79;91.15;98471.19;5110374;28;20039;-60
2022/07/11 11:30:30;;;;;;;;;;;;;;;20.89;87.30;98471.69;5114009;28;20583;-60
2022/07/11 11:32:56;;;;;;;;;;;;;;;20.87;88.54;98464.97;5122435;28;19983;-60
2022/07/11 11:35:23;;;;;;;;;;;;;;;20.77;86.18;98463.34;5119825;28;20000;-59
2022/07/11 11:37:50;;;;;;;;;;;;;;;20.88;86.20;98464.66;5118648;28;19931;-59
2022/07/11 11:40:18;;;;;;;;;;;;;;;21.06;82.54;98459.25;5120257;28;19931;-60
2022/07/11 11:42:44;;;;;;;;;;;;;;;21.13;83.52;98465.84;5130610;28;19924;-59
2022/07/11 11:45:12;;;;;;;;;;;;;;;21.13;84.30;98459.63;5121722;28;20479;-60
2022/07/11 11:47:47;;;;;;;;;;;;;;;21.32;84.07;98454.69;5118943;28;19925;-60
2022/07/11 11:50:13;;;;;;;;;;;;;;;21.44;80.80;98452.94;5119802;28;19924;-60
2022/07/11 11:52:39;;;;;;;;;;;;;;;21.35;83.51;98454.03;5122293;28;19967;-60
2022/07/11 11:55:07;;;;;;;;;;;;;;;21.31;81.17;98461.22;5122187;28;19947;-62
2022/07/11 11:57:35;;;;;;;;;;;;;;;21.48;80.14;98445.72;5120715;28;19924;-61
2022/07/11 12:00:02;;;;;;;;;;;;;;;21.43;79.68;98456.75;5122607;28;19951;-60
2022/07/11 12:02:30;;;;;;;;;;;;;;;21.48;81.13;98458.50;5125730;28;19949;-61
2022/07/11 12:04:56;;;;;;;;;;;;;;;21.16;81.19;98459.78;5126374;28;19942;-60
2022/07/11 12:07:24;;;;;;;;;;;;;;;21.22;82.58;98444.94;5123553;28;20001;-61
2022/07/11 12:09:52;;;;;;;;;;;;;;;21.22;82.97;98449.56;5122494;28;19963;-60
2022/07/11 12:15:06;;;;;;;;;;;;;;;21.41;82.87;98448.13;5126182;28;19959;-60
2022/07/11 12:17:33;;;;;;;;;;;;;;;21.51;83.01;98447.78;5114066;28;19924;-61
2022/07/11 12:19:59;;;;;;;;;;;;;;;21.60;82.26;98444.28;5113953;28;19931;-61
2022/07/11 12:22:27;;;;;;;;;;;;;;;21.58;80.09;98444.59;5113883;28;19955;-61
2022/07/11 12:24:54;;;;;;;;;;;;;;;21.48;80.07;98445.72;5113823;28;19928;-59
2022/07/11 12:27:20;;;;;;;;;;;;;;;21.39;81.90;98436.75;5113797;28;20004;-59
2022/07/11 12:29:50;;;;;;;;;;;;;;;21.33;83.05;98427.19;5113620;28;19970;-60
2022/07/11 12:32:18;;;;;;;;;;;;;;;21.46;82.91;98437.09;5113509;28;19930;-60
2022/07/11 12:34:45;;;;;;;;;;;;;;;21.73;82.63;98435.13;5113558;28;19959;-61
2022/07/11 12:37:12;;;;;;;;;;;;;;;21.86;81.54;98428.72;5113514;28;19927;-60
2022/07/11 12:39:40;;;;;;;;;;;;;;;21.95;81.28;98434.94;5113679;28;19928;-61
2022/07/11 12:42:21;;;;;;;;;;;;;;;22.05;81.16;98432.69;5122153;27;19923;-60
2022/07/11 12:44:58;;;;;;;;;;;;;;;21.96;82.63;98422.97;5125590;28;19923;-60
2022/07/11 12:47:26;;;;;;;;;;;;;;;22.22;81.75;98426.38;5122768;28;19923;-60
2022/07/11 12:49:52;;;;;;;;;;;;;;;22.24;81.56;98423.34;5121730;28;19924;-60
2022/07/11 12:52:19;;;;;;;;;;;;;;;22.32;80.87;98426.03;5123575;28;20030;-60
2022/07/11 12:54:45;;;;;;;;;;;;;;;22.16;81.87;98419.50;5125268;28;19923;-60
2022/07/11 12:57:16;;;;;;;;;;;;;;;22.21;81.27;98411.19;5124407;28;19924;-60
2022/07/11 12:59:42;;;;;;;;;;;;;;;22.04;82.48;98408.53;5121763;28;19924;-61
2022/07/11 13:02:10;;;;;;;;;;;;;;;22.08;82.30;98404.03;5122078;28;19924;-60